This is the latest recevied weather packets stored in our database for station/object LZ3DJ-10. If no packets are shown the sender has not sent any weather packets the latest 10 day(s).
| Time | Temp. | Humidity | Pressure | Rain* | Wind** | Luminosity | Snow |
|---|---|---|---|---|---|---|---|
| 1787933705 | 28.89° C | 47% | 1013.3 hPa | 0 mm | 0 m/s | - | - |
| 1787932805 | 30.56° C | 44% | 1013.1 hPa | 0 mm | 0 m/s | - | - |
| 1787931906 | 30.56° C | 44% | 1013.1 hPa | 0 mm | 0 m/s | - | - |
| 1787931005 | 30° C | 44% | 1013.1 hPa | 0 mm | 0.45 m/s, 166° | - | - |
| 1787930105 | 31.67° C | 42% | 1012.8 hPa | 0 mm | 0.45 m/s, 144° | - | - |
| 1787929205 | 33.33° C | 39% | 1012.4 hPa | 0 mm | 0.45 m/s, 324° | - | - |
| 1787928306 | 33.89° C | 37% | 1011.9 hPa | 0 mm | 0 m/s | - | - |
| 1787927406 | 33.89° C | 37% | 1012 hPa | 0 mm | 0 m/s | - | - |
| 1787926506 | 34.44° C | 37% | 1011.9 hPa | 0 mm | 0 m/s | - | - |
| 1787925605 | 35° C | 36% | 1011.7 hPa | 0 mm | 0 m/s | - | - |
| 1787924706 | 35° C | 36% | 1011.7 hPa | 0 mm | 0 m/s | - | - |
| 1787923805 | 34.44° C | 36% | 1011.9 hPa | 0 mm | 0.45 m/s, 324° | - | - |
| 1787922906 | 34.44° C | 36% | 1011.8 hPa | 0 mm | 0 m/s | - | - |
| 1787922006 | 35.56° C | 36% | 1011.6 hPa | 0 mm | 0 m/s | - | - |
| 1787921105 | 35° C | 36% | 1011.5 hPa | 0 mm | 0 m/s | - | - |
| 1787920206 | 34.44° C | 36% | 1011.8 hPa | 0 mm | 0 m/s | - | - |
| 1787919305 | 35° C | 35% | 1011.8 hPa | 0 mm | 0 m/s | - | - |
| 1787918406 | 32.78° C | 36% | 1012.2 hPa | 0 mm | 0.45 m/s, 146° | - | - |
| 1787917505 | 34.44° C | 36% | 1012 hPa | 0 mm | 0 m/s | - | - |
| 1787916606 | 34.44° C | 36% | 1012.2 hPa | 0 mm | 0 m/s | - | - |
| 1787915706 | 32.22° C | 37% | 1012.6 hPa | 0 mm | 0 m/s | - | - |
| 1787914805 | 32.78° C | 38% | 1012.7 hPa | 0 mm | 0 m/s | - | - |
| 1787913906 | 32.22° C | 38% | 1012.9 hPa | 0 mm | 0 m/s | - | - |
| 1787913005 | 31.67° C | 40% | 1013 hPa | 0 mm | 0 m/s | - | - |
| 1787912106 | 30.56° C | 41% | 1013.2 hPa | 0 mm | 0.45 m/s, 132° | - | - |
* Rain latest hour (hover to see other rain measurements)
** Current wind speed in m/s (hover to see current wind gust speed)